Time;durP1;ratioP1;P1;durP2;ratioP2;P2;SDS_P1;SDS_P2;PMS_P1;PMS_P2;Temp;Humidity;BMP_temperature;BMP_pressure;BME280_temperature;BME280_humidity;BME280_pressure;Samples;Min_cycle;Max_cycle;Signal;HPM_P1;HPM_P2
2022/03/24 00:00:56;;;;;;;61.45;33.05;;;;;;;6.87;51.10;100800.84;4883405;29;20049;-78
2022/03/24 00:03:41;;;;;;;62.60;31.02;;;;;;;6.98;50.90;100800.91;4869658;29;20430;-78
2022/03/24 00:06:25;;;;;;;61.30;29.02;;;;;;;7.00;50.46;100796.59;4883469;29;20110;-78
2022/03/24 00:09:09;;;;;;;55.45;30.35;;;;;;;6.81;51.28;100803.41;4882187;29;20045;-78
2022/03/24 00:11:55;;;;;;;58.45;30.02;;;;;;;6.76;51.68;100803.41;4882594;29;20052;-78
2022/03/24 00:14:39;;;;;;;63.60;31.67;;;;;;;6.68;52.06;100807.69;4869584;29;20049;-78
2022/03/24 00:17:24;;;;;;;60.67;32.08;;;;;;;6.68;52.44;100809.41;4882518;29;20064;-78
2022/03/24 00:20:10;;;;;;;54.15;29.25;;;;;;;6.71;52.58;100801.63;4883041;29;20049;-78
2022/03/24 00:22:54;;;;;;;54.85;30.00;;;;;;;6.65;52.97;100809.41;4866865;29;20071;-78
2022/03/24 00:25:38;;;;;;;65.20;29.88;;;;;;;6.58;53.34;100813.69;4883033;29;20049;-78
2022/03/24 00:28:23;;;;;;;56.55;28.83;;;;;;;6.59;53.54;100799.81;4883027;29;20044;-78
2022/03/24 00:31:09;;;;;;;55.90;29.17;;;;;;;6.43;54.30;100808.34;4882281;29;20049;-78
2022/03/24 00:33:53;;;;;;;54.38;28.50;;;;;;;6.40;54.23;100804.03;4882933;29;20048;-78
2022/03/24 00:36:39;;;;;;;55.15;27.95;;;;;;;6.47;53.79;100811.00;4869109;29;20045;-78
2022/03/24 00:39:23;;;;;;;52.42;28.13;;;;;;;6.30;54.75;100807.38;4869175;29;20450;-78
2022/03/24 00:42:11;;;;;;;52.70;27.92;;;;;;;6.40;54.22;100813.53;4882966;29;20389;-78
2022/03/24 00:44:57;;;;;;;55.83;28.52;;;;;;;6.17;55.20;100808.16;4881795;29;20061;-78
2022/03/24 00:47:43;;;;;;;57.75;28.48;;;;;;;6.15;55.38;100808.16;4868872;29;20081;-78
2022/03/24 00:50:27;;;;;;;53.53;28.05;;;;;;;6.15;55.25;100809.88;4868734;29;20045;-78
2022/03/24 00:53:12;;;;;;;56.15;27.52;;;;;;;6.03;55.81;100810.63;4882602;29;20048;-78
2022/03/24 00:55:58;;;;;;;54.20;26.80;;;;;;;5.94;55.91;100805.34;4868768;29;20085;-78
2022/03/24 00:58:43;;;;;;;56.53;25.95;;;;;;;5.95;55.60;100797.56;4882591;29;20057;-78
2022/03/24 01:01:27;;;;;;;55.72;25.58;;;;;;;5.91;55.95;100811.34;4882493;29;20072;-78
2022/03/24 01:04:12;;;;;;;57.58;24.95;;;;;;;5.95;55.75;100815.78;4881834;29;20049;-78
2022/03/24 01:06:56;;;;;;;53.65;28.27;;;;;;;5.80;56.30;100820.78;4882297;29;20049;-78
2022/03/24 01:09:41;;;;;;;48.83;27.10;;;;;;;5.80;56.46;100815.56;4882267;29;20048;-78
2022/03/24 01:12:25;;;;;;;55.92;26.75;;;;;;;5.83;56.08;100811.28;4881597;29;20049;-78
2022/03/24 01:15:14;;;;;;;46.55;24.80;;;;;;;5.76;56.34;100808.59;4881833;29;20080;-78
2022/03/24 01:18:00;;;;;;;55.40;25.75;;;;;;;5.76;56.13;100801.69;4868585;29;20056;-78
2022/03/24 01:20:46;;;;;;;52.13;27.17;;;;;;;5.67;56.93;100811.09;4881850;29;20048;-78
2022/03/24 01:23:31;;;;;;;48.78;24.58;;;;;;;5.65;56.31;100800.66;4868481;29;20045;-78
2022/03/24 01:26:17;;;;;;;57.03;25.60;;;;;;;5.51;57.69;100810.06;4868574;29;20044;-78
2022/03/24 01:29:03;;;;;;;44.33;23.90;;;;;;;5.59;56.57;100800.63;4868328;29;20045;-78
2022/03/24 01:31:48;;;;;;;44.55;24.23;;;;;;;5.57;56.64;100799.72;4868406;29;20332;-78
2022/03/24 01:34:32;;;;;;;44.40;24.00;;;;;;;5.42;57.43;100794.34;4882207;29;20100;-78
2022/03/24 01:37:18;;;;;;;48.50;25.52;;;;;;;5.47;57.05;100803.97;4882091;29;20041;-78
2022/03/24 01:40:05;;;;;;;49.03;25.17;;;;;;;5.37;57.80;100804.72;4868169;29;20052;-78
2022/03/24 01:42:50;;;;;;;47.50;24.27;;;;;;;5.31;57.90;100812.41;4881951;29;20046;-78
2022/03/24 01:45:34;;;;;;;44.17;23.30;;;;;;;5.24;58.61;100808.00;4863561;29;20124;-78
2022/03/24 01:48:19;;;;;;;46.60;23.08;;;;;;;5.26;57.88;100803.69;4849678;29;20404;-78
2022/03/24 01:51:03;;;;;;;44.50;23.20;;;;;;;5.16;58.69;100815.69;4849877;29;20046;-78
2022/03/24 01:53:48;;;;;;;44.85;22.55;;;;;;;5.10;58.63;100798.31;4863315;29;20049;-78
2022/03/24 01:56:32;;;;;;;41.33;22.00;;;;;;;5.07;58.94;100812.97;4836699;29;20045;-78
2022/03/24 01:59:17;;;;;;;42.30;21.95;;;;;;;4.92;60.24;100816.25;4849628;29;20049;-78
2022/03/24 02:02:02;;;;;;;42.50;21.90;;;;;;;4.92;59.74;100816.25;4849544;29;20397;-78
2022/03/24 02:04:47;;;;;;;49.85;25.05;;;;;;;4.68;61.83;100812.44;4849691;29;20053;-78
2022/03/24 02:07:36;;;;;;;41.05;22.23;;;;;;;4.74;60.64;100811.66;4862655;29;20050;-78
2022/03/24 02:10:21;;;;;;;48.10;22.85;;;;;;;4.72;61.49;100812.50;4849443;29;20045;-78
2022/03/24 02:13:07;;;;;;;44.45;23.20;;;;;;;4.70;61.53;100812.47;4849624;29;20065;-78
2022/03/24 02:15:51;;;;;;;43.67;20.90;;;;;;;4.61;62.44;100808.00;4849466;29;20050;-78
2022/03/24 02:18:35;;;;;;;44.33;23.02;;;;;;;4.56;62.32;100807.06;4862464;29;20113;-78
2022/03/24 02:21:20;;;;;;;45.72;23.95;;;;;;;4.48;62.91;100808.66;4849588;29;20108;-78
2022/03/24 02:24:04;;;;;;;47.33;23.02;;;;;;;4.45;62.80;100816.38;4836615;29;20045;-78
2022/03/24 02:26:50;;;;;;;38.97;21.83;;;;;;;4.38;64.10;100812.81;4862388;29;20050;-78
2022/03/24 02:29:35;;;;;;;39.95;21.60;;;;;;;4.40;62.57;100799.91;4862298;29;20379;-77
2022/03/24 02:32:21;;;;;;;39.33;20.05;;;;;;;4.40;62.08;100815.47;4864488;29;20121;-78
2022/03/24 02:35:06;;;;;;;40.90;21.15;;;;;;;4.32;62.92;100811.84;4852679;29;20395;-78
2022/03/24 02:37:51;;;;;;;37.72;20.00;;;;;;;4.25;62.80;100807.44;4865721;29;20363;-78
2022/03/24 02:40:35;;;;;;;41.05;21.13;;;;;;;4.08;64.94;100813.19;4866285;29;20053;-78
2022/03/24 02:43:20;;;;;;;41.03;21.60;;;;;;;4.15;63.62;100820.22;4869404;29;20451;-76
2022/03/24 02:46:05;;;;;;;43.58;21.00;;;;;;;4.07;63.69;100815.78;4884076;29;20051;-77
2022/03/24 02:48:49;;;;;;;40.42;20.98;;;;;;;3.99;63.97;100813.91;4884082;29;20430;-78
2022/03/24 02:51:33;;;;;;;38.50;20.35;;;;;;;3.91;64.93;100817.22;4884041;29;20044;-78
2022/03/24 02:54:19;;;;;;;36.90;20.42;;;;;;;3.78;66.43;100829.09;4884083;29;20045;-78
2022/03/24 02:57:04;;;;;;;43.15;21.80;;;;;;;3.73;66.83;100825.53;4870858;29;20100;-78
2022/03/24 02:59:49;;;;;;;40.85;19.58;;;;;;;3.65;67.40;100830.56;4884602;29;20115;-78
2022/03/24 03:02:34;;;;;;;43.17;22.98;;;;;;;3.55;69.08;100825.19;4884608;29;20469;-77
2022/03/24 03:05:20;;;;;;;50.00;23.65;;;;;;;3.44;71.20;100836.19;4884661;29;20057;-78
2022/03/24 03:08:05;;;;;;;41.08;21.02;;;;;;;3.46;69.70;100834.50;4884594;29;20093;-78
2022/03/24 03:10:49;;;;;;;49.13;23.40;;;;;;;3.43;71.45;100828.41;4884341;29;20112;-78
2022/03/24 03:13:34;;;;;;;45.30;23.75;;;;;;;3.42;71.84;100834.44;4883666;29;20041;-78
2022/03/24 03:16:19;;;;;;;42.92;21.70;;;;;;;3.47;70.13;100830.19;4883595;29;20049;-78
2022/03/24 03:19:04;;;;;;;40.38;21.95;;;;;;;3.39;71.52;100830.06;4870486;29;20049;-78
2022/03/24 03:21:49;;;;;;;46.70;24.23;;;;;;;3.33;72.75;100832.50;4870313;29;20048;-78
2022/03/24 03:24:33;;;;;;;43.22;23.83;;;;;;;3.37;71.93;100833.44;4883542;29;20084;-78
2022/03/24 03:27:18;;;;;;;40.10;21.27;;;;;;;3.25;74.55;100836.66;4884090;29;20389;-78
2022/03/24 03:30:02;;;;;;;41.35;22.33;;;;;;;3.26;72.87;100833.25;4884006;29;20045;-77
2022/03/24 03:32:47;;;;;;;42.40;24.85;;;;;;;3.09;76.84;100842.34;4883226;29;20045;-78
2022/03/24 03:35:32;;;;;;;44.22;21.45;;;;;;;3.20;74.24;100841.75;4883933;29;20060;-78
2022/03/24 03:38:18;;;;;;;48.60;25.10;;;;;;;3.09;77.38;100842.34;4883211;29;20378;-78
2022/03/24 03:41:02;;;;;;;44.17;23.95;;;;;;;3.15;76.20;100843.38;4870037;29;20048;-78
2022/03/24 03:43:47;;;;;;;52.35;25.60;;;;;;;3.10;78.13;100850.16;4883357;29;20441;-78
2022/03/24 03:46:32;;;;;;;44.53;23.77;;;;;;;3.17;76.28;100852.03;4883840;29;20048;-78
2022/03/24 03:49:18;;;;;;;52.55;23.85;;;;;;;3.02;79.79;100842.25;4882896;29;20055;-78
2022/03/24 03:52:02;;;;;;;53.95;26.08;;;;;;;3.10;79.17;100847.56;4882931;29;20078;-77
2022/03/24 03:54:47;;;;;;;52.95;25.92;;;;;;;3.16;78.55;100858.06;4883568;29;20045;-76
2022/03/24 03:57:31;;;;;;;55.38;25.65;;;;;;;3.11;79.54;100844.13;4869855;29;20040;-77
2022/03/24 04:03:19;;;;;;;51.45;24.88;;;;;;;3.14;78.51;100851.09;4883680;29;20442;-78
2022/03/24 04:06:09;;;;;;;54.47;27.15;;;;;;;3.13;78.52;100847.63;4883415;29;20113;-78
2022/03/24 04:08:53;;;;;;;45.50;26.27;;;;;;;3.06;79.35;100850.94;4883273;29;20053;-78
2022/03/24 04:11:38;;;;;;;51.08;25.30;;;;;;;3.03;78.98;100849.16;4883315;29;20055;-78
2022/03/24 04:14:22;;;;;;;51.92;27.50;;;;;;;2.92;81.24;100845.44;4883382;29;20049;-78
2022/03/24 04:17:08;;;;;;;51.28;27.17;;;;;;;2.90;81.42;100848.84;4883367;29;20049;-78
2022/03/24 04:19:52;;;;;;;54.38;28.80;;;;;;;2.88;81.49;100855.69;4883292;29;20158;-78
2022/03/24 04:22:37;;;;;;;50.30;27.52;;;;;;;2.95;79.93;100860.16;4882551;29;20115;-77
2022/03/24 04:25:22;;;;;;;51.85;28.13;;;;;;;2.87;81.49;100866.91;4869223;29;20045;-78
2022/03/24 04:28:08;;;;;;;55.65;28.48;;;;;;;2.79;82.19;100864.13;4866592;29;20439;-78
2022/03/24 04:30:52;;;;;;;52.33;28.73;;;;;;;2.76;81.87;100861.44;4882914;29;20048;-78
2022/03/24 04:33:37;;;;;;;56.03;30.80;;;;;;;2.70;83.19;100861.34;4882286;29;20052;-78
2022/03/24 04:36:21;;;;;;;52.67;27.10;;;;;;;2.73;81.83;100866.56;4882969;29;20086;-78
2022/03/24 04:39:06;;;;;;;53.92;27.65;;;;;;;2.67;82.45;100859.53;4869150;29;20053;-78
2022/03/24 04:41:50;;;;;;;48.72;26.80;;;;;;;2.61;82.86;100864.56;4868422;29;20052;-78
2022/03/24 04:44:35;;;;;;;57.22;28.95;;;;;;;2.56;83.69;100866.16;4867549;29;20053;-78
2022/03/24 04:47:20;;;;;;;54.95;27.05;;;;;;;2.56;83.23;100868.75;4882604;29;20053;-78
2022/03/24 04:50:05;;;;;;;60.55;30.42;;;;;;;2.47;84.47;100863.34;4868498;29;20045;-75
2022/03/24 04:52:49;;;;;;;58.35;29.90;;;;;;;2.49;84.09;100866.84;4855454;29;20045;-77
2022/03/24 04:55:34;;;;;;;62.85;29.88;;;;;;;2.41;86.01;100868.38;4881691;29;20052;-78
2022/03/24 04:58:18;;;;;;;53.20;27.90;;;;;;;2.40;85.98;100872.66;4882147;29;20060;-77
2022/03/24 05:01:03;;;;;;;58.28;30.30;;;;;;;2.32;87.60;100869.03;4882420;29;20052;-78
2022/03/24 05:03:47;;;;;;;64.53;31.77;;;;;;;2.33;87.59;100866.47;4882879;29;20056;-78
2022/03/24 05:06:31;;;;;;;60.17;31.20;;;;;;;2.36;87.14;100875.13;4882987;29;20049;-78
2022/03/24 05:09:16;;;;;;;58.92;31.60;;;;;;;2.45;85.98;100865.03;4869197;29;20045;-78
2022/03/24 05:12:01;;;;;;;62.80;29.17;;;;;;;2.48;85.63;100867.69;4882450;29;20056;-78
2022/03/24 05:14:46;;;;;;;66.30;32.20;;;;;;;2.44;86.43;100864.16;4882651;29;20431;-77
2022/03/24 05:17:31;;;;;;;60.17;32.17;;;;;;;2.43;86.68;100866.69;4868931;29;20475;-78
2022/03/24 05:20:15;;;;;;;68.43;32.30;;;;;;;2.45;87.17;100865.91;4882936;29;20057;-78
2022/03/24 05:23:00;;;;;;;63.67;34.22;;;;;;;2.36;89.23;100878.59;4882549;29;20052;-78
2022/03/24 05:25:47;;;;;;;67.65;32.65;;;;;;;2.51;88.05;100872.94;4881855;29;20049;-78
2022/03/24 05:28:32;;;;;;;65.32;32.40;;;;;;;2.53;87.34;100872.13;4869086;29;20037;-78
2022/03/24 05:31:17;;;;;;;58.47;31.52;;;;;;;2.64;86.91;100874.13;4881826;29;20044;-78
2022/03/24 05:34:02;;;;;;;61.95;31.73;;;;;;;2.65;87.32;100871.56;4882516;29;20041;-77
2022/03/24 05:36:48;;;;;;;62.28;31.33;;;;;;;2.77;87.36;100876.16;4881506;29;20067;-78
2022/03/24 05:39:32;;;;;;;62.10;33.47;;;;;;;2.88;86.45;100879.84;4868519;29;20072;-78
2022/03/24 05:42:17;;;;;;;56.92;32.13;;;;;;;2.91;87.80;100882.50;4868417;29;20044;-78
2022/03/24 05:45:02;;;;;;;53.42;28.42;;;;;;;3.28;86.44;100876.47;4868301;29;20057;-76
2022/03/24 05:47:47;;;;;;;54.63;32.65;;;;;;;3.75;82.44;100878.25;4882247;29;20127;-77
2022/03/24 05:50:39;;;;;;;63.33;31.33;;;;;;;4.31;79.12;100880.16;4868219;29;20045;-78
2022/03/24 05:53:31;;;;;;;53.47;27.85;;;;;;;5.02;76.68;100889.94;4874483;29;20351;-78
2022/03/24 05:56:16;;;;;;;52.85;29.58;;;;;;;4.87;74.33;100877.59;4882017;29;20057;-78
2022/03/24 05:59:00;;;;;;;57.70;32.20;;;;;;;5.24;73.53;100867.75;4855718;29;20057;-78
2022/03/24 06:01:47;;;;;;;52.58;29.95;;;;;;;5.53;71.40;100879.41;4881269;29;20051;-78
2022/03/24 06:04:31;;;;;;;61.90;30.45;;;;;;;5.94;69.54;100881.63;4882533;29;20052;-78
2022/03/24 06:07:17;;;;;;;57.35;30.55;;;;;;;6.28;68.09;100887.19;4872090;29;20049;-78
2022/03/24 06:10:01;;;;;;;54.50;31.60;;;;;;;6.17;67.86;100891.41;4885604;29;20041;-78
2022/03/24 06:12:47;;;;;;;52.60;29.25;;;;;;;6.85;66.13;100882.44;4885416;29;20113;-79
2022/03/24 06:15:32;;;;;;;52.83;29.90;;;;;;;7.20;62.92;100890.47;4858806;29;20508;-79
2022/03/24 06:18:17;;;;;;;51.78;31.55;;;;;;;7.12;62.98;100889.59;4884152;29;20041;-80
2022/03/24 06:21:02;;;;;;;50.33;30.92;;;;;;;6.75;63.77;100889.31;4856948;29;20053;-80
2022/03/24 06:23:46;;;;;;;54.35;33.00;;;;;;;7.75;60.13;100890.75;4883773;29;20054;-80
2022/03/24 06:26:31;;;;;;;50.58;30.00;;;;;;;8.01;59.23;100901.25;4883774;29;20049;-80
2022/03/24 06:29:15;;;;;;;54.22;30.45;;;;;;;8.22;57.68;100900.44;4856618;29;20052;-81
2022/03/24 06:32:00;;;;;;;49.63;30.65;;;;;;;8.09;58.54;100902.16;4869680;29;20045;-81
2022/03/24 06:34:47;;;;;;;56.50;32.83;;;;;;;8.48;57.47;100899.63;4883293;29;20048;-81
2022/03/24 06:37:39;;;;;;;57.67;32.50;;;;;;;8.09;58.14;100910.00;4883358;29;20041;-81
2022/03/24 06:40:24;;;;;;;56.83;32.53;;;;;;;8.31;57.27;100912.63;4869513;29;20048;-81
2022/03/24 06:43:09;;;;;;;50.55;32.33;;;;;;;9.25;54.97;100906.53;4882428;29;20108;-81
2022/03/24 06:45:54;;;;;;;53.45;33.30;;;;;;;8.66;56.24;100923.16;4869473;29;20355;-81
2022/03/24 06:48:38;;;;;;;56.28;31.70;;;;;;;9.96;53.33;100917.63;4884209;29;20438;-82
2022/03/24 06:51:23;;;;;;;54.78;34.15;;;;;;;9.53;54.08;100920.44;4858036;29;20044;-82
2022/03/24 06:54:07;;;;;;;58.33;33.63;;;;;;;9.18;53.88;100911.81;4870929;29;20052;-82
2022/03/24 06:56:52;;;;;;;58.10;35.47;;;;;;;10.02;52.30;100906.28;4884081;29;20045;-82
2022/03/24 06:59:37;;;;;;;53.42;32.90;;;;;;;9.96;53.43;100907.16;4884375;29;20065;-82
2022/03/24 07:02:21;;;;;;;54.88;34.85;;;;;;;9.42;53.21;100916.09;4870941;29;20097;-82
2022/03/24 07:05:08;;;;;;;55.85;33.75;;;;;;;10.53;51.77;100917.34;4870814;29;20358;-82
2022/03/24 07:07:52;;;;;;;61.40;37.83;;;;;;;9.94;51.32;100928.97;4884347;29;20114;-81
2022/03/24 07:10:37;;;;;;;62.40;37.67;;;;;;;10.35;49.78;100925.31;4884418;29;20044;-81
2022/03/24 07:13:23;;;;;;;57.78;35.35;;;;;;;11.15;48.85;100922.91;4884468;29;20056;-81
2022/03/24 07:16:07;;;;;;;54.55;34.00;;;;;;;11.28;47.25;100932.41;4869023;29;20367;-82
2022/03/24 07:18:52;;;;;;;54.63;32.45;;;;;;;11.94;47.25;100926.41;4882605;29;20049;-81
2022/03/24 07:21:37;;;;;;;50.83;30.45;;;;;;;12.84;45.05;100921.59;4883529;29;20041;-81
2022/03/24 07:24:21;;;;;;;46.75;28.20;;;;;;;12.89;44.40;100921.50;4882982;29;20403;-82
2022/03/24 07:27:06;;;;;;;47.28;28.67;;;;;;;12.99;42.68;100930.97;4883463;29;20053;-82
2022/03/24 07:29:50;;;;;;;50.42;30.55;;;;;;;12.24;42.33;100933.00;4882767;29;20052;-84
2022/03/24 07:32:35;;;;;;;43.28;28.38;;;;;;;12.50;43.50;100942.28;4882646;29;20044;-83
2022/03/24 07:35:20;;;;;;;46.10;30.85;;;;;;;11.30;43.51;100935.00;4868496;29;20033;-84
2022/03/24 07:38:07;;;;;;;43.45;29.30;;;;;;;11.69;43.94;100936.31;4882285;29;20148;-85
2022/03/24 07:40:52;;;;;;;46.40;30.33;;;;;;;12.06;43.52;100936.75;4881603;29;20081;-81
2022/03/24 07:43:36;;;;;;;46.88;28.13;;;;;;;12.18;41.55;100934.84;4868571;29;20117;-83
2022/03/24 07:46:20;;;;;;;38.55;25.55;;;;;;;12.32;42.09;100936.41;4883903;29;20051;-82
2022/03/24 07:49:04;;;;;;;40.58;25.83;;;;;;;12.90;40.31;100934.59;4857407;29;20045;-83
2022/03/24 07:51:49;;;;;;;43.53;26.23;;;;;;;12.39;40.26;100932.78;4870119;29;20366;-83
2022/03/24 07:54:50;;;;;;;35.55;24.98;;;;;;;13.20;40.19;100927.09;4884316;29;20045;-83
2022/03/24 07:57:35;;;;;;;48.72;28.38;;;;;;;12.84;39.61;100929.47;4869730;29;20108;-83
2022/03/24 08:00:20;;;;;;;43.70;27.52;;;;;;;12.45;40.97;100944.13;4884250;29;20044;-83
2022/03/24 08:03:08;;;;;;;43.08;26.63;;;;;;;13.68;39.50;100922.69;4882932;29;20352;-83
2022/03/24 08:05:53;;;;;;;39.80;27.08;;;;;;;14.09;38.99;100930.63;4869623;29;20407;-83
2022/03/24 08:08:37;;;;;;;41.67;27.80;;;;;;;14.06;38.95;100925.41;4883935;29;20109;-83
2022/03/24 08:11:22;;;;;;;40.95;28.73;;;;;;;14.67;37.77;100934.59;4883600;29;20045;-83
2022/03/24 08:14:06;;;;;;;46.47;29.42;;;;;;;13.07;39.60;100935.19;4869667;29;20164;-84
2022/03/24 08:16:50;;;;;;;53.95;29.70;;;;;;;12.16;41.99;100948.00;4883066;29;20065;-81
2022/03/24 08:19:35;;;;;;;39.90;27.67;;;;;;;13.66;39.96;100931.53;4883835;29;20052;-83
2022/03/24 08:22:20;;;;;;;37.97;26.02;;;;;;;14.19;39.48;100937.41;4883804;29;20422;-82
2022/03/24 08:25:09;;;;;;;43.38;29.48;;;;;;;13.93;38.71;100930.94;4856980;29;20045;-83
2022/03/24 08:27:53;;;;;;;43.20;28.02;;;;;;;14.46;37.82;100928.00;4883739;29;20049;-80
2022/03/24 08:30:38;;;;;;;46.45;28.15;;;;;;;14.98;37.48;100937.31;4881436;29;20045;-80
2022/03/24 08:33:23;;;;;;;40.00;28.65;;;;;;;15.08;37.17;100937.94;4882910;29;20041;-81
2022/03/24 08:36:07;;;;;;;44.75;28.63;;;;;;;15.37;37.16;100926.63;4882851;29;20102;-82
2022/03/24 08:38:53;;;;;;;41.92;27.35;;;;;;;15.57;37.16;100934.03;4883545;29;20417;-81
2022/03/24 08:41:37;;;;;;;43.97;28.77;;;;;;;15.41;36.10;100937.06;4855355;29;20045;-80
2022/03/24 08:44:22;;;;;;;44.78;28.98;;;;;;;14.35;37.61;100949.34;4880153;29;20061;-80
2022/03/24 08:47:06;;;;;;;49.20;29.10;;;;;;;14.62;37.32;100947.88;4867127;29;20041;-82
2022/03/24 08:49:51;;;;;;;48.75;29.60;;;;;;;15.02;37.50;100946.91;4880254;29;20041;-81
2022/03/24 08:52:36;;;;;;;66.38;30.45;;;;;;;14.52;37.42;100953.41;4867159;29;20049;-81
2022/03/24 08:55:21;;;;;;;46.65;29.45;;;;;;;14.37;37.29;100944.06;4867243;29;20074;-81
2022/03/24 08:58:06;;;;;;;54.33;32.08;;;;;;;13.80;38.25;100948.75;4882382;29;20048;-82
2022/03/24 09:00:50;;;;;;;45.15;28.55;;;;;;;14.15;37.88;100954.19;4868250;29;20105;-82
2022/03/24 09:03:35;;;;;;;39.78;27.42;;;;;;;15.03;36.62;100947.78;4881665;29;20045;-81
2022/03/24 09:06:20;;;;;;;39.78;26.08;;;;;;;14.81;36.16;100943.00;4882373;29;20053;-81
2022/03/24 09:09:06;;;;;;;45.20;28.75;;;;;;;14.95;35.96;100953.25;4882759;29;20049;-82
2022/03/24 09:11:50;;;;;;;39.13;24.63;;;;;;;14.98;35.17;100949.66;4869213;29;20049;-82
2022/03/24 09:14:34;;;;;;;42.38;27.38;;;;;;;15.00;35.26;100948.69;4868621;29;20052;-81
2022/03/24 09:17:18;;;;;;;38.88;25.90;;;;;;;14.85;35.29;100949.97;4882360;29;20037;-82
2022/03/24 09:20:10;;;;;;;34.75;23.15;;;;;;;15.28;33.39;100942.72;4881625;29;20109;-81
2022/03/24 09:22:55;;;;;;;70.75;25.50;;;;;;;15.69;33.50;100936.31;4868515;29;20045;-82
2022/03/24 09:25:39;;;;;;;32.38;22.83;;;;;;;15.34;33.70;100938.16;4882469;29;20102;-82
2022/03/24 09:28:24;;;;;;;40.75;23.70;;;;;;;15.61;32.66;100943.59;4881861;29;20427;-83
2022/03/24 09:31:09;;;;;;;31.45;22.55;;;;;;;15.07;32.00;100941.50;4869167;29;20041;-83
2022/03/24 09:33:53;;;;;;;33.63;21.85;;;;;;;15.43;32.05;100935.25;4868498;29;20052;-84
2022/03/24 09:36:39;;;;;;;31.30;21.08;;;;;;;15.95;31.88;100942.63;4882739;29;20094;-82
2022/03/24 09:39:23;;;;;;;32.60;21.08;;;;;;;16.27;30.51;100945.19;4882195;29;20056;-84
2022/03/24 09:42:08;;;;;;;104.32;56.75;;;;;;;15.44;27.99;100941.41;4888258;29;20326;-83
2022/03/24 09:44:52;;;;;;;30.42;20.33;;;;;;;15.57;29.62;100936.66;4888244;29;20053;-83
2022/03/24 09:47:38;;;;;;;26.48;17.00;;;;;;;16.04;28.39;100940.59;4874763;29;20049;-84
2022/03/24 09:50:24;;;;;;;32.85;19.73;;;;;;;16.23;28.71;100948.84;4874414;29;20399;-84
2022/03/24 09:53:09;;;;;;;41.22;21.73;;;;;;;15.72;29.52;100944.16;4888081;29;20057;-84
2022/03/24 09:55:54;;;;;;;29.05;18.05;;;;;;;16.36;30.31;100952.84;4888801;29;20041;-84
2022/03/24 09:58:42;;;;;;;26.35;17.95;;;;;;;16.95;29.43;100945.72;4887553;29;20104;-84
2022/03/24 10:01:27;;;;;;;31.15;19.77;;;;;;;17.03;28.45;100947.19;4888723;29;20128;-84
2022/03/24 10:04:14;;;;;;;33.83;20.17;;;;;;;16.84;28.75;100945.22;4888699;29;20045;-84
2022/03/24 10:07:01;;;;;;;29.92;18.23;;;;;;;16.23;28.41;100950.63;4888407;29;20391;-84
2022/03/24 10:09:50;;;;;;;25.48;17.23;;;;;;;16.37;28.49;100956.34;4874272;29;20057;-84
2022/03/24 10:12:37;;;;;;;24.95;16.88;;;;;;;16.99;28.82;100949.97;4874452;29;20045;-84
2022/03/24 10:15:22;;;;;;;27.17;15.43;;;;;;;17.36;27.50;100940.78;4888051;29;20052;-83
2022/03/24 10:18:15;;;;;;;69.53;25.63;;;;;;;16.90;26.30;100952.91;4888060;29;20076;-84
2022/03/24 10:21:01;;;;;;;21.58;12.25;;;;;;;16.70;24.38;100945.59;4887611;29;20052;-83
2022/03/24 10:23:45;;;;;;;15.65;10.93;;;;;;;17.37;24.63;100940.72;4888325;29;20055;-83
2022/03/24 10:26:48;;;;;;;20.42;11.65;;;;;;;17.38;23.97;100926.53;4874251;29;20045;-84
2022/03/24 10:29:34;;;;;;;18.80;13.05;;;;;;;17.42;24.32;100944.09;4887947;29;20307;-84
2022/03/24 10:32:18;;;;;;;20.00;12.60;;;;;;;16.51;24.03;100940.03;4888437;29;20049;-84
2022/03/24 10:35:10;;;;;;;16.92;11.70;;;;;;;17.24;24.74;100932.34;4888327;29;20049;-83
2022/03/24 10:37:55;;;;;;;;;;;;;;;17.42;24.64;100922.00;4862108;29;20040;-84
2022/03/24 10:40:39;;;;;;;18.00;12.27;;;;;;;17.00;24.07;100928.75;4888431;29;19924;-84
2022/03/24 10:43:24;;;;;;;23.00;14.25;;;;;;;17.66;24.86;100915.84;4887867;29;20060;-84
2022/03/24 10:46:19;;;;;;;19.17;12.57;;;;;;;17.99;24.28;100919.03;4873771;29;20084;-84
2022/03/24 10:49:23;;;;;;;16.80;10.18;;;;;;;17.91;24.50;100912.31;4887735;29;20045;-84
2022/03/24 10:52:07;;;;;;;18.25;12.18;;;;;;;18.32;24.76;100909.81;4871934;29;20045;-84
2022/03/24 10:54:51;;;;;;;13.43;9.93;;;;;;;18.37;23.22;100910.50;4884870;29;20355;-84
2022/03/24 10:57:37;;;;;;;15.25;9.80;;;;;;;17.96;23.35;100899.72;4871549;29;20055;-84
2022/03/24 11:00:22;;;;;;;18.02;10.85;;;;;;;17.27;24.75;100900.47;4870974;29;20053;-84
2022/03/24 11:03:07;;;;;;;13.13;9.73;;;;;;;18.08;24.00;100906.34;4884173;29;20044;-83
2022/03/24 11:05:52;;;;;;;14.80;10.45;;;;;;;18.26;23.37;100900.31;4884657;29;20053;-84
2022/03/24 11:08:36;;;;;;;14.80;9.48;;;;;;;18.35;23.59;100897.31;4858051;29;20443;-84
2022/03/24 11:11:22;;;;;;;16.83;11.00;;;;;;;18.51;23.77;100894.03;4883803;29;20045;-85
2022/03/24 11:14:06;;;;;;;18.05;10.55;;;;;;;18.62;23.28;100897.09;4857767;29;20041;-85
2022/03/24 11:16:50;;;;;;;17.70;9.15;;;;;;;19.02;23.41;100887.50;4884322;29;20438;-84
2022/03/24 11:19:38;;;;;;;15.38;9.23;;;;;;;19.00;23.33;100890.22;4883919;29;20045;-85
2022/03/24 11:22:36;;;;;;;15.50;10.20;;;;;;;18.96;22.71;100891.28;4870487;29;20108;-85
2022/03/24 11:25:21;;;;;;;18.20;11.00;;;;;;;18.91;23.37;100880.00;4884651;29;20063;-85
2022/03/24 11:28:11;;;;;;;16.08;10.77;;;;;;;18.99;24.03;100872.56;4856822;29;20060;-84
2022/03/24 11:30:55;;;;;;;18.83;11.98;;;;;;;18.78;23.80;100890.25;4869713;29;20427;-85
2022/03/24 11:33:44;;;;;;;15.10;11.10;;;;;;;18.50;24.53;100876.41;4884194;29;20438;-85
2022/03/24 11:36:30;;;;;;;16.85;10.68;;;;;;;18.98;24.05;100872.63;4882557;29;20045;-85
2022/03/24 11:39:15;;;;;;;22.10;11.65;;;;;;;19.00;23.81;100868.13;4881527;29;20038;-85
2022/03/24 11:41:59;;;;;;;15.15;10.80;;;;;;;19.28;23.83;100863.34;4868362;29;20048;-84
2022/03/24 11:44:53;;;;;;;16.77;11.00;;;;;;;19.32;24.43;100864.91;4881265;29;20076;-85
2022/03/24 11:47:52;;;;;;;15.70;10.27;;;;;;;19.47;23.70;100860.72;4868303;29;20060;-86
2022/03/24 11:50:54;;;;;;;17.58;11.82;;;;;;;18.53;24.70;100869.19;4882800;29;20044;-86
2022/03/24 11:53:39;;;;;;;16.20;10.75;;;;;;;19.06;24.34;100866.06;4883142;29;20427;-86
2022/03/24 11:56:23;;;;;;;16.63;9.95;;;;;;;19.17;23.50;100859.41;4870148;29;20045;-86
2022/03/24 11:59:07;;;;;;;18.58;10.82;;;;;;;19.45;23.73;100859.91;4857433;29;20045;-86
2022/03/24 12:02:13;;;;;;;16.08;10.07;;;;;;;19.04;23.01;100864.41;4883696;29;20049;-87
2022/03/24 12:04:58;;;;;;;11.65;8.85;;;;;;;19.37;23.02;100849.66;4882802;29;20045;-86
2022/03/24 12:07:42;;;;;;;15.35;9.60;;;;;;;19.58;23.01;100854.91;4883632;29;20355;-86
2022/03/24 12:10:31;;;;;;;15.43;9.63;;;;;;;18.97;23.05;100852.31;4883022;29;20438;-86
2022/03/24 12:13:15;;;;;;;10.20;7.68;;;;;;;19.50;23.25;100847.28;4883698;29;20077;-86
2022/03/24 12:16:29;;;;;;;18.05;8.23;;;;;;;19.82;21.91;100852.94;4883443;29;20045;-86
2022/03/24 12:19:32;;;;;;;10.82;8.13;;;;;;;19.36;21.69;100844.38;4874590;29;20336;-87
2022/03/24 12:22:22;;;;;;;11.98;8.15;;;;;;;18.87;22.04;100844.75;4882660;29;20049;-86
2022/03/24 12:25:17;;;;;;;13.20;8.90;;;;;;;19.30;22.38;100834.91;4883803;29;20340;-86
2022/03/24 12:28:11;;;;;;;14.52;10.02;;;;;;;19.07;21.61;100845.69;4856351;29;20041;-87
2022/03/24 12:31:07;;;;;;;13.70;9.30;;;;;;;19.36;22.50;100839.06;4883331;29;20045;-86
2022/03/24 12:33:52;;;;;;;13.75;9.68;;;;;;;19.27;21.89;100834.16;4882606;29;20052;-87
2022/03/24 12:36:39;;;;;;;15.23;9.05;;;;;;;18.84;22.20;100836.06;4882537;29;20049;-86
2022/03/24 12:39:34;;;;;;;14.75;8.48;;;;;;;18.87;22.34;100834.13;4882773;29;20041;-88
2022/03/24 12:42:20;;;;;;;14.57;7.35;;;;;;;19.17;21.84;100830.22;4856458;29;20045;-86